sensor_id;sensor_type;location;lat;lon;timestamp;pressure;altitude;pressure_sealevel;temperature;humidity
68141;BME280;54941;52.220;104.306;2023-11-19T00:01:39;95386.88;;;0.25;88.19
68141;BME280;54941;52.220;104.306;2023-11-19T00:04:06;95384.25;;;0.29;88.21
68141;BME280;54941;52.220;104.306;2023-11-19T00:06:34;95375.59;;;0.29;87.96
68141;BME280;54941;52.220;104.306;2023-11-19T00:09:00;95377.34;;;0.35;87.92
68141;BME280;54941;52.220;104.306;2023-11-19T00:11:27;95373.00;;;0.34;87.73
68141;BME280;54941;52.220;104.306;2023-11-19T00:13:53;95360.00;;;0.34;87.44
68141;BME280;54941;52.220;104.306;2023-11-19T00:16:19;95357.44;;;0.44;87.29
68141;BME280;54941;52.220;104.306;2023-11-19T00:18:46;95361.78;;;0.41;87.29
68141;BME280;54941;52.220;104.306;2023-11-19T00:21:12;95355.72;;;0.37;87.11
68141;BME280;54941;52.220;104.306;2023-11-19T00:23:40;95354.84;;;0.44;86.99
68141;BME280;54941;52.220;104.306;2023-11-19T00:26:06;95349.63;;;0.44;87.00
68141;BME280;54941;52.220;104.306;2023-11-19T00:28:33;95342.72;;;0.39;86.82
68141;BME280;54941;52.220;104.306;2023-11-19T00:30:59;95345.31;;;0.45;86.72
68141;BME280;54941;52.220;104.306;2023-11-19T00:33:26;95353.13;;;0.51;86.55
68141;BME280;54941;52.220;104.306;2023-11-19T00:35:52;95333.19;;;0.51;86.69
68141;BME280;54941;52.220;104.306;2023-11-19T00:38:18;95346.19;;;0.53;86.63
68141;BME280;54941;52.220;104.306;2023-11-19T00:40:46;95338.41;;;0.51;86.73
68141;BME280;54941;52.220;104.306;2023-11-19T00:43:13;95326.25;;;0.56;86.39
68141;BME280;54941;52.220;104.306;2023-11-19T00:45:39;95328.88;;;0.58;86.32
68141;BME280;54941;52.220;104.306;2023-11-19T00:48:05;95338.41;;;0.61;85.98
68141;BME280;54941;52.220;104.306;2023-11-19T00:50:32;95313.25;;;0.69;85.80
68141;BME280;54941;52.220;104.306;2023-11-19T00:52:58;95313.28;;;0.72;85.56
68141;BME280;54941;52.220;104.306;2023-11-19T00:55:25;95303.75;;;0.74;85.16
68141;BME280;54941;52.220;104.306;2023-11-19T00:57:53;95310.66;;;0.82;84.95
68141;BME280;54941;52.220;104.306;2023-11-19T01:00:19;95311.53;;;0.81;84.48
68141;BME280;54941;52.220;104.306;2023-11-19T01:02:45;95299.38;;;0.91;84.44
68141;BME280;54941;52.220;104.306;2023-11-19T01:05:12;95303.69;;;1.00;83.82
68141;BME280;54941;52.220;104.306;2023-11-19T01:07:38;95297.63;;;0.99;83.53
68141;BME280;54941;52.220;104.306;2023-11-19T01:10:06;95289.78;;;1.14;82.87
68141;BME280;54941;52.220;104.306;2023-11-19T01:12:32;95282.81;;;1.23;82.48
68141;BME280;54941;52.220;104.306;2023-11-19T01:15:00;95269.81;;;1.24;82.17
68141;BME280;54941;52.220;104.306;2023-11-19T01:17:26;95277.59;;;1.32;82.02
68141;BME280;54941;52.220;104.306;2023-11-19T01:19:53;95281.03;;;1.37;81.29
68141;BME280;54941;52.220;104.306;2023-11-19T01:22:19;95266.25;;;1.46;80.67
68141;BME280;54941;52.220;104.306;2023-11-19T01:24:46;95275.75;;;1.57;80.67
68141;BME280;54941;52.220;104.306;2023-11-19T01:27:12;95263.56;;;1.62;79.85
68141;BME280;54941;52.220;104.306;2023-11-19T01:29:38;95255.75;;;1.66;79.91
68141;BME280;54941;52.220;104.306;2023-11-19T01:32:07;95244.44;;;1.72;79.56
68141;BME280;54941;52.220;104.306;2023-11-19T01:34:33;95252.22;;;1.78;79.22
68141;BME280;54941;52.220;104.306;2023-11-19T01:36:59;95247.84;;;1.88;79.37
68141;BME280;54941;52.220;104.306;2023-11-19T01:39:26;95255.63;;;1.91;79.41
68141;BME280;54941;52.220;104.306;2023-11-19T01:41:52;95246.97;;;1.86;79.91
68141;BME280;54941;52.220;104.306;2023-11-19T01:44:19;95235.69;;;1.87;79.51
68141;BME280;54941;52.220;104.306;2023-11-19T01:46:46;95223.53;;;1.89;79.87
68141;BME280;54941;52.220;104.306;2023-11-19T01:49:15;95220.78;;;2.04;79.45
68141;BME280;54941;52.220;104.306;2023-11-19T01:51:43;95206.00;;;2.09;79.09
68141;BME280;54941;52.220;104.306;2023-11-19T01:54:10;95212.06;;;2.13;78.73
68141;BME280;54941;52.220;104.306;2023-11-19T01:56:39;95188.41;;;2.37;78.18
68141;BME280;54941;52.220;104.306;2023-11-19T01:59:07;95197.88;;;2.46;77.24
68141;BME280;54941;52.220;104.306;2023-11-19T02:01:34;95193.44;;;2.57;76.92
68141;BME280;54941;52.220;104.306;2023-11-19T02:04:01;95196.69;;;2.80;76.30
68141;BME280;54941;52.220;104.306;2023-11-19T02:06:30;95173.09;;;2.91;76.04
68141;BME280;54941;52.220;104.306;2023-11-19T02:08:58;95169.19;;;3.24;74.83
68141;BME280;54941;52.220;104.306;2023-11-19T02:11:25;95170.47;;;3.59;73.16
68141;BME280;54941;52.220;104.306;2023-11-19T02:13:51;95168.81;;;3.53;73.43
68141;BME280;54941;52.220;104.306;2023-11-19T02:16:18;95153.88;;;3.63;72.64
68141;BME280;54941;52.220;104.306;2023-11-19T02:18:44;95154.09;;;4.04;71.15
68141;BME280;54941;52.220;104.306;2023-11-19T02:21:11;95146.91;;;4.20;70.76
68141;BME280;54941;52.220;104.306;2023-11-19T02:23:39;95151.47;;;4.07;70.68
68141;BME280;54941;52.220;104.306;2023-11-19T02:26:13;95130.69;;;4.49;69.08
68141;BME280;54941;52.220;104.306;2023-11-19T02:28:43;95133.50;;;4.40;69.41
68141;BME280;54941;52.220;104.306;2023-11-19T02:31:09;95132.81;;;4.27;69.99
68141;BME280;54941;52.220;104.306;2023-11-19T02:33:36;95110.13;;;4.31;69.86
68141;BME280;54941;52.220;104.306;2023-11-19T02:36:03;95116.13;;;4.36;69.95
68141;BME280;54941;52.220;104.306;2023-11-19T02:38:30;95127.56;;;4.30;69.97
68141;BME280;54941;52.220;104.306;2023-11-19T02:40:56;95112.44;;;4.48;69.55
68141;BME280;54941;52.220;104.306;2023-11-19T02:43:23;95104.50;;;4.52;68.95
68141;BME280;54941;52.220;104.306;2023-11-19T02:45:51;95089.63;;;4.06;71.01
68141;BME280;54941;52.220;104.306;2023-11-19T02:48:17;95098.16;;;4.18;70.70
68141;BME280;54941;52.220;104.306;2023-11-19T02:50:43;95076.56;;;4.05;70.82
68141;BME280;54941;52.220;104.306;2023-11-19T02:53:10;95080.94;;;4.04;71.27
68141;BME280;54941;52.220;104.306;2023-11-19T02:55:36;95074.78;;;4.56;69.76
68141;BME280;54941;52.220;104.306;2023-11-19T02:58:03;95077.78;;;4.81;68.89
68141;BME280;54941;52.220;104.306;2023-11-19T03:00:29;95071.56;;;4.87;67.97
68141;BME280;54941;52.220;104.306;2023-11-19T03:02:57;95071.75;;;5.58;65.97
68141;BME280;54941;52.220;104.306;2023-11-19T03:05:23;95062.03;;;5.63;65.25
68141;BME280;54941;52.220;104.306;2023-11-19T03:07:50;95056.25;;;5.49;65.49
68141;BME280;54941;52.220;104.306;2023-11-19T03:10:16;95063.00;;;5.96;64.40
68141;BME280;54941;52.220;104.306;2023-11-19T03:12:43;95048.00;;;6.03;63.50
68141;BME280;54941;52.220;104.306;2023-11-19T03:15:10;95030.88;;;6.55;62.08
68141;BME280;54941;52.220;104.306;2023-11-19T03:17:38;95028.88;;;6.32;61.68
68141;BME280;54941;52.220;104.306;2023-11-19T03:20:08;95034.16;;;6.94;61.01
68141;BME280;54941;52.220;104.306;2023-11-19T03:22:34;95032.34;;;6.96;60.59
68141;BME280;54941;52.220;104.306;2023-11-19T03:25:01;95026.06;;;7.01;59.67
68141;BME280;54941;52.220;104.306;2023-11-19T03:27:30;95019.06;;;6.40;61.33
68141;BME280;54941;52.220;104.306;2023-11-19T03:29:56;95017.06;;;6.79;61.03
68141;BME280;54941;52.220;104.306;2023-11-19T03:32:23;95001.13;;;6.56;61.11
68141;BME280;54941;52.220;104.306;2023-11-19T03:34:49;94987.19;;;6.85;60.76
68141;BME280;54941;52.220;104.306;2023-11-19T03:37:17;94994.25;;;6.52;61.43
68141;BME280;54941;52.220;104.306;2023-11-19T03:39:51;94976.66;;;6.55;61.37
68141;BME280;54941;52.220;104.306;2023-11-19T03:42:20;94980.69;;;6.67;61.14
68141;BME280;54941;52.220;104.306;2023-11-19T03:44:46;94974.09;;;6.83;60.16
68141;BME280;54941;52.220;104.306;2023-11-19T03:47:13;94973.91;;;7.19;58.94
68141;BME280;54941;52.220;104.306;2023-11-19T03:49:39;94973.91;;;6.89;59.33
68141;BME280;54941;52.220;104.306;2023-11-19T03:52:05;94953.97;;;6.82;59.94
68141;BME280;54941;52.220;104.306;2023-11-19T03:54:33;94944.44;;;6.80;59.95
68141;BME280;54941;52.220;104.306;2023-11-19T03:57:00;94931.38;;;6.49;60.89
68141;BME280;54941;52.220;104.306;2023-11-19T03:59:26;94933.66;;;6.59;60.74
68141;BME280;54941;52.220;104.306;2023-11-19T04:01:55;94922.59;;;6.50;60.88
68141;BME280;54941;52.220;104.306;2023-11-19T04:04:22;94934.13;;;6.44;60.84
68141;BME280;54941;52.220;104.306;2023-11-19T04:06:48;94931.63;;;6.39;61.23
68141;BME280;54941;52.220;104.306;2023-11-19T04:09:14;94921.75;;;6.49;61.08
68141;BME280;54941;52.220;104.306;2023-11-19T04:11:42;94909.19;;;6.59;60.62
68141;BME280;54941;52.220;104.306;2023-11-19T04:14:09;94872.97;;;6.42;61.15
68141;BME280;54941;52.220;104.306;2023-11-19T04:16:35;94899.50;;;6.31;61.44
68141;BME280;54941;52.220;104.306;2023-11-19T04:19:03;94883.81;;;6.30;61.71
68141;BME280;54941;52.220;104.306;2023-11-19T04:21:29;94879.38;;;6.32;61.64
68141;BME280;54941;52.220;104.306;2023-11-19T04:23:56;94872.47;;;6.29;61.54
68141;BME280;54941;52.220;104.306;2023-11-19T04:26:22;94868.69;;;6.39;61.20
68141;BME280;54941;52.220;104.306;2023-11-19T04:28:50;94854.28;;;6.53;60.98
68141;BME280;54941;52.220;104.306;2023-11-19T04:31:16;94871.31;;;6.67;60.65
68141;BME280;54941;52.220;104.306;2023-11-19T04:33:43;94865.84;;;6.75;60.33
68141;BME280;54941;52.220;104.306;2023-11-19T04:36:09;94866.59;;;6.79;59.60
68141;BME280;54941;52.220;104.306;2023-11-19T04:38:36;94862.53;;;6.68;60.27
68141;BME280;54941;52.220;104.306;2023-11-19T04:41:03;94855.63;;;6.36;61.39
68141;BME280;54941;52.220;104.306;2023-11-19T04:43:29;94852.88;;;6.11;61.93
68141;BME280;54941;52.220;104.306;2023-11-19T04:45:57;94851.59;;;6.26;61.44
68141;BME280;54941;52.220;104.306;2023-11-19T04:48:27;94836.97;;;6.18;61.91
68141;BME280;54941;52.220;104.306;2023-11-19T04:50:53;94822.47;;;6.06;62.40
68141;BME280;54941;52.220;104.306;2023-11-19T04:53:19;94816.97;;;6.13;61.71
68141;BME280;54941;52.220;104.306;2023-11-19T04:55:46;94803.78;;;6.17;62.29
68141;BME280;54941;52.220;104.306;2023-11-19T04:58:12;94795.41;;;6.33;61.65
68141;BME280;54941;52.220;104.306;2023-11-19T05:00:38;94786.94;;;6.25;61.71
68141;BME280;54941;52.220;104.306;2023-11-19T05:03:06;94760.41;;;6.34;61.28
68141;BME280;54941;52.220;104.306;2023-11-19T05:05:33;94758.47;;;6.41;61.22
68141;BME280;54941;52.220;104.306;2023-11-19T05:07:59;94768.00;;;6.43;60.80
68141;BME280;54941;52.220;104.306;2023-11-19T05:10:25;94762.22;;;6.60;60.25
68141;BME280;54941;52.220;104.306;2023-11-19T05:12:52;94759.75;;;6.56;60.29
68141;BME280;54941;52.220;104.306;2023-11-19T05:15:18;94755.25;;;6.59;60.11
68141;BME280;54941;52.220;104.306;2023-11-19T05:17:45;94758.03;;;6.55;60.26
68141;BME280;54941;52.220;104.306;2023-11-19T05:20:12;94744.28;;;6.47;59.65
68141;BME280;54941;52.220;104.306;2023-11-19T05:22:40;94723.50;;;6.67;59.27
68141;BME280;54941;52.220;104.306;2023-11-19T05:25:07;94726.19;;;6.65;58.75
68141;BME280;54941;52.220;104.306;2023-11-19T05:27:33;94718.88;;;6.75;58.38
68141;BME280;54941;52.220;104.306;2023-11-19T05:30:00;94706.84;;;6.94;57.84
68141;BME280;54941;52.220;104.306;2023-11-19T05:32:26;94706.41;;;6.82;57.50
68141;BME280;54941;52.220;104.306;2023-11-19T05:34:52;94710.66;;;6.86;57.61
68141;BME280;54941;52.220;104.306;2023-11-19T05:37:20;94706.66;;;6.74;57.37
68141;BME280;54941;52.220;104.306;2023-11-19T05:39:47;94723.00;;;6.82;57.37
68141;BME280;54941;52.220;104.306;2023-11-19T05:42:13;94724.25;;;6.72;57.51
68141;BME280;54941;52.220;104.306;2023-11-19T05:44:39;94711.91;;;6.74;57.27
68141;BME280;54941;52.220;104.306;2023-11-19T05:47:06;94717.25;;;6.71;57.51
68141;BME280;54941;52.220;104.306;2023-11-19T05:49:32;94709.53;;;6.66;57.98
68141;BME280;54941;52.220;104.306;2023-11-19T05:51:59;94692.59;;;6.50;59.03
68141;BME280;54941;52.220;104.306;2023-11-19T05:54:27;94689.63;;;6.61;58.58
68141;BME280;54941;52.220;104.306;2023-11-19T05:56:53;94692.13;;;6.37;59.40
68141;BME280;54941;52.220;104.306;2023-11-19T05:59:19;94686.13;;;6.34;60.15
68141;BME280;54941;52.220;104.306;2023-11-19T06:01:46;94677.31;;;6.08;60.83
68141;BME280;54941;52.220;104.306;2023-11-19T06:04:12;94678.06;;;6.12;60.94
68141;BME280;54941;52.220;104.306;2023-11-19T06:06:39;94668.88;;;5.99;61.24
68141;BME280;54941;52.220;104.306;2023-11-19T06:09:06;94648.25;;;5.86;61.46
68141;BME280;54941;52.220;104.306;2023-11-19T06:11:34;94636.91;;;5.86;61.46
68141;BME280;54941;52.220;104.306;2023-11-19T06:14:00;94650.94;;;5.85;61.31
68141;BME280;54941;52.220;104.306;2023-11-19T06:16:27;94648.47;;;5.80;61.40
68141;BME280;54941;52.220;104.306;2023-11-19T06:18:53;94645.44;;;5.94;61.03
68141;BME280;54941;52.220;104.306;2023-11-19T06:21:19;94634.22;;;5.91;61.69
68141;BME280;54941;52.220;104.306;2023-11-19T06:23:46;94634.25;;;5.88;61.78
68141;BME280;54941;52.220;104.306;2023-11-19T06:26:12;94602.97;;;5.83;61.52
68141;BME280;54941;52.220;104.306;2023-11-19T06:28:40;94607.88;;;5.94;61.13
68141;BME280;54941;52.220;104.306;2023-11-19T06:31:06;94604.06;;;6.04;60.75
68141;BME280;54941;52.220;104.306;2023-11-19T06:33:33;94608.34;;;6.06;60.53
68141;BME280;54941;52.220;104.306;2023-11-19T06:35:59;94607.22;;;6.15;59.84
68141;BME280;54941;52.220;104.306;2023-11-19T06:38:26;94593.63;;;6.29;59.27
68141;BME280;54941;52.220;104.306;2023-11-19T06:40:52;94596.53;;;6.46;58.63
68141;BME280;54941;52.220;104.306;2023-11-19T06:43:18;94599.94;;;6.48;58.25
68141;BME280;54941;52.220;104.306;2023-11-19T06:45:46;94604.19;;;6.52;57.86
68141;BME280;54941;52.220;104.306;2023-11-19T06:48:13;94586.38;;;6.62;57.61
68141;BME280;54941;52.220;104.306;2023-11-19T06:50:39;94589.91;;;6.61;57.59
68141;BME280;54941;52.220;104.306;2023-11-19T06:53:05;94604.41;;;6.71;57.30
68141;BME280;54941;52.220;104.306;2023-11-19T06:55:34;94586.94;;;6.70;57.18
68141;BME280;54941;52.220;104.306;2023-11-19T06:58:01;94582.34;;;6.77;57.30
68141;BME280;54941;52.220;104.306;2023-11-19T07:00:27;94589.06;;;6.60;57.47
68141;BME280;54941;52.220;104.306;2023-11-19T07:02:55;94572.59;;;6.55;57.87
68141;BME280;54941;52.220;104.306;2023-11-19T07:05:21;94581.75;;;6.68;57.50
68141;BME280;54941;52.220;104.306;2023-11-19T07:07:48;94564.63;;;6.58;57.56
68141;BME280;54941;52.220;104.306;2023-11-19T07:10:14;94557.97;;;6.48;57.85
68141;BME280;54941;52.220;104.306;2023-11-19T07:12:41;94553.38;;;6.55;58.04
68141;BME280;54941;52.220;104.306;2023-11-19T07:15:08;94548.47;;;6.46;58.18
68141;BME280;54941;52.220;104.306;2023-11-19T07:17:34;94551.03;;;6.47;58.04
68141;BME280;54941;52.220;104.306;2023-11-19T07:20:02;94553.16;;;6.36;58.30
68141;BME280;54941;52.220;104.306;2023-11-19T07:22:30;94545.56;;;6.28;58.57
68141;BME280;54941;52.220;104.306;2023-11-19T07:24:56;94533.56;;;6.21;59.19
68141;BME280;54941;52.220;104.306;2023-11-19T07:27:23;94512.44;;;6.26;59.21
68141;BME280;54941;52.220;104.306;2023-11-19T07:29:49;94501.66;;;6.08;59.48
68141;BME280;54941;52.220;104.306;2023-11-19T07:32:15;94508.13;;;5.98;59.93
68141;BME280;54941;52.220;104.306;2023-11-19T07:34:42;94499.09;;;5.80;60.68
68141;BME280;54941;52.220;104.306;2023-11-19T07:37:10;94507.81;;;5.81;60.64
68141;BME280;54941;52.220;104.306;2023-11-19T07:39:36;94515.31;;;5.65;61.26
68141;BME280;54941;52.220;104.306;2023-11-19T07:42:03;94511.19;;;5.58;61.29
68141;BME280;54941;52.220;104.306;2023-11-19T07:44:29;94504.31;;;5.54;61.14
68141;BME280;54941;52.220;104.306;2023-11-19T07:46:56;94495.00;;;5.45;61.50
68141;BME280;54941;52.220;104.306;2023-11-19T07:49:22;94491.94;;;5.33;61.65
68141;BME280;54941;52.220;104.306;2023-11-19T07:51:48;94473.81;;;5.25;62.24
68141;BME280;54941;52.220;104.306;2023-11-19T07:54:16;94464.22;;;5.25;61.92
68141;BME280;54941;52.220;104.306;2023-11-19T07:56:43;94475.00;;;5.15;62.34
68141;BME280;54941;52.220;104.306;2023-11-19T07:59:09;94478.72;;;5.08;62.49
68141;BME280;54941;52.220;104.306;2023-11-19T08:01:36;94477.22;;;5.01;62.58
68141;BME280;54941;52.220;104.306;2023-11-19T08:04:02;94456.22;;;5.02;62.42
68141;BME280;54941;52.220;104.306;2023-11-19T08:06:28;94464.34;;;4.93;62.67
68141;BME280;54941;52.220;104.306;2023-11-19T08:08:55;94443.50;;;4.90;62.61
68141;BME280;54941;52.220;104.306;2023-11-19T08:11:23;94443.72;;;4.82;62.79
68141;BME280;54941;52.220;104.306;2023-11-19T08:13:49;94463.00;;;4.80;62.79
68141;BME280;54941;52.220;104.306;2023-11-19T08:16:16;94456.22;;;4.73;62.90
68141;BME280;54941;52.220;104.306;2023-11-19T08:18:43;94463.53;;;4.61;63.53
68141;BME280;54941;52.220;104.306;2023-11-19T08:21:09;94447.84;;;4.61;63.20
68141;BME280;54941;52.220;104.306;2023-11-19T08:23:36;94459.16;;;4.62;63.34
68141;BME280;54941;52.220;104.306;2023-11-19T08:26:03;94452.25;;;4.59;63.44
68141;BME280;54941;52.220;104.306;2023-11-19T08:28:31;94441.81;;;4.59;63.20
68141;BME280;54941;52.220;104.306;2023-11-19T08:30:57;94435.06;;;4.51;63.37
68141;BME280;54941;52.220;104.306;2023-11-19T08:33:24;94428.19;;;4.48;63.46
68141;BME280;54941;52.220;104.306;2023-11-19T08:35:50;94423.75;;;4.50;63.45
68141;BME280;54941;52.220;104.306;2023-11-19T08:38:17;94413.25;;;4.53;63.28
68141;BME280;54941;52.220;104.306;2023-11-19T08:40:43;94436.03;;;4.48;63.50
68141;BME280;54941;52.220;104.306;2023-11-19T08:43:09;94428.38;;;4.42;63.82
68141;BME280;54941;52.220;104.306;2023-11-19T08:45:37;94416.38;;;4.35;63.80
68141;BME280;54941;52.220;104.306;2023-11-19T08:48:04;94421.69;;;4.32;64.09
68141;BME280;54941;52.220;104.306;2023-11-19T08:50:30;94426.19;;;4.27;64.47
68141;BME280;54941;52.220;104.306;2023-11-19T08:52:57;94423.56;;;4.27;64.55
68141;BME280;54941;52.220;104.306;2023-11-19T08:55:23;94435.97;;;4.20;64.67
68141;BME280;54941;52.220;104.306;2023-11-19T08:57:49;94412.84;;;4.06;65.40
68141;BME280;54941;52.220;104.306;2023-11-19T09:00:16;94411.66;;;4.17;64.91
68141;BME280;54941;52.220;104.306;2023-11-19T09:02:44;94410.94;;;4.12;65.26
68141;BME280;54941;52.220;104.306;2023-11-19T09:05:10;94404.16;;;4.04;65.34
68141;BME280;54941;52.220;104.306;2023-11-19T09:07:37;94406.91;;;4.00;65.55
68141;BME280;54941;52.220;104.306;2023-11-19T09:10:04;94407.88;;;3.97;65.43
68141;BME280;54941;52.220;104.306;2023-11-19T09:12:30;94408.03;;;3.91;65.82
68141;BME280;54941;52.220;104.306;2023-11-19T09:14:56;94403.78;;;3.87;65.79
68141;BME280;54941;52.220;104.306;2023-11-19T09:17:23;94429.00;;;3.88;65.76
68141;BME280;54941;52.220;104.306;2023-11-19T09:19:51;94431.72;;;3.85;66.04
68141;BME280;54941;52.220;104.306;2023-11-19T09:22:17;94424.72;;;3.86;65.92
68141;BME280;54941;52.220;104.306;2023-11-19T09:24:44;94399.56;;;3.83;66.24
68141;BME280;54941;52.220;104.306;2023-11-19T09:27:10;94408.34;;;3.79;66.26
68141;BME280;54941;52.220;104.306;2023-11-19T09:29:36;94414.56;;;3.75;66.32
68141;BME280;54941;52.220;104.306;2023-11-19T09:32:03;94406.00;;;3.70;66.65
68141;BME280;54941;52.220;104.306;2023-11-19T09:34:29;94420.94;;;3.65;66.71
68141;BME280;54941;52.220;104.306;2023-11-19T09:36:57;94416.75;;;3.59;67.10
68141;BME280;54941;52.220;104.306;2023-11-19T09:39:24;94408.25;;;3.51;67.58
68141;BME280;54941;52.220;104.306;2023-11-19T09:41:50;94417.91;;;3.47;67.57
68141;BME280;54941;52.220;104.306;2023-11-19T09:44:16;94395.38;;;3.43;67.62
68141;BME280;54941;52.220;104.306;2023-11-19T09:46:44;94388.41;;;3.44;67.73
68141;BME280;54941;52.220;104.306;2023-11-19T09:49:11;94397.25;;;3.38;67.95
68141;BME280;54941;52.220;104.306;2023-11-19T09:51:39;94388.44;;;3.42;68.07
68141;BME280;54941;52.220;104.306;2023-11-19T09:54:07;94413.78;;;3.39;68.28
68141;BME280;54941;52.220;104.306;2023-11-19T09:56:34;94410.41;;;3.34;68.51
68141;BME280;54941;52.220;104.306;2023-11-19T09:59:02;94430.16;;;3.44;68.22
68141;BME280;54941;52.220;104.306;2023-11-19T10:01:28;94419.03;;;3.37;68.55
68141;BME280;54941;52.220;104.306;2023-11-19T10:03:56;94426.09;;;3.32;68.68
68141;BME280;54941;52.220;104.306;2023-11-19T10:06:23;94446.91;;;3.37;68.44
68141;BME280;54941;52.220;104.306;2023-11-19T10:08:50;94445.06;;;3.40;68.39
68141;BME280;54941;52.220;104.306;2023-11-19T10:11:24;94444.28;;;3.35;68.42
68141;BME280;54941;52.220;104.306;2023-11-19T10:13:51;94434.78;;;3.33;68.81
68141;BME280;54941;52.220;104.306;2023-11-19T10:16:18;94426.19;;;3.29;68.87
68141;BME280;54941;52.220;104.306;2023-11-19T10:18:46;94428.97;;;3.21;69.16
68141;BME280;54941;52.220;104.306;2023-11-19T10:21:13;94453.28;;;3.25;69.09
68141;BME280;54941;52.220;104.306;2023-11-19T10:23:53;94449.81;;;3.25;69.12
68141;BME280;54941;52.220;104.306;2023-11-19T10:26:20;94441.94;;;3.26;68.99
68141;BME280;54941;52.220;104.306;2023-11-19T10:28:49;94449.13;;;3.16;69.60
68141;BME280;54941;52.220;104.306;2023-11-19T10:31:16;94462.13;;;3.18;69.68
68141;BME280;54941;52.220;104.306;2023-11-19T10:33:42;94467.44;;;3.15;69.79
68141;BME280;54941;52.220;104.306;2023-11-19T10:36:09;94474.28;;;3.19;69.77
68141;BME280;54941;52.220;104.306;2023-11-19T10:38:35;94487.31;;;3.19;69.75
68141;BME280;54941;52.220;104.306;2023-11-19T10:41:02;94467.22;;;3.22;69.82
68141;BME280;54941;52.220;104.306;2023-11-19T10:43:28;94473.38;;;3.20;70.04
68141;BME280;54941;52.220;104.306;2023-11-19T10:46:09;94470.78;;;3.20;70.24
68141;BME280;54941;52.220;104.306;2023-11-19T10:48:36;94473.66;;;3.08;70.57
68141;BME280;54941;52.220;104.306;2023-11-19T10:51:04;94482.28;;;3.11;70.70
68141;BME280;54941;52.220;104.306;2023-11-19T10:53:33;94468.53;;;3.05;70.90
68141;BME280;54941;52.220;104.306;2023-11-19T10:56:02;94486.00;;;3.01;70.94
68141;BME280;54941;52.220;104.306;2023-11-19T10:58:32;94482.31;;;3.10;70.93
68141;BME280;54941;52.220;104.306;2023-11-19T11:01:02;94476.34;;;3.05;71.27
68141;BME280;54941;52.220;104.306;2023-11-19T11:03:39;94476.41;;;3.03;71.34
68141;BME280;54941;52.220;104.306;2023-11-19T11:06:06;94469.31;;;3.08;71.25
68141;BME280;54941;52.220;104.306;2023-11-19T11:08:36;94474.47;;;3.10;71.21
68141;BME280;54941;52.220;104.306;2023-11-19T11:11:04;94475.28;;;3.13;70.85
68141;BME280;54941;52.220;104.306;2023-11-19T11:13:31;94467.59;;;3.07;71.30
68141;BME280;54941;52.220;104.306;2023-11-19T11:16:00;94475.47;;;3.06;71.11
68141;BME280;54941;52.220;104.306;2023-11-19T11:18:27;94470.97;;;3.11;70.92
68141;BME280;54941;52.220;104.306;2023-11-19T11:20:59;94496.31;;;3.06;71.17
68141;BME280;54941;52.220;104.306;2023-11-19T11:23:45;94489.19;;;3.12;71.00
68141;BME280;54941;52.220;104.306;2023-11-19T11:26:35;94476.56;;;2.96;71.50
68141;BME280;54941;52.220;104.306;2023-11-19T11:29:13;94486.88;;;3.02;71.40
68141;BME280;54941;52.220;104.306;2023-11-19T11:31:51;94487.78;;;2.99;71.59
68141;BME280;54941;52.220;104.306;2023-11-19T11:34:58;94483.41;;;3.00;71.63
68141;BME280;54941;52.220;104.306;2023-11-19T11:37:33;94492.78;;;3.08;71.23
68141;BME280;54941;52.220;104.306;2023-11-19T11:40:02;94502.28;;;3.11;71.12
68141;BME280;54941;52.220;104.306;2023-11-19T11:42:36;94506.59;;;3.12;71.10
68141;BME280;54941;52.220;104.306;2023-11-19T11:45:04;94506.66;;;3.10;70.54
68141;BME280;54941;52.220;104.306;2023-11-19T11:50:35;94505.13;;;3.00;70.98
68141;BME280;54941;52.220;104.306;2023-11-19T11:53:15;94511.38;;;2.95;71.33
68141;BME280;54941;52.220;104.306;2023-11-19T11:55:55;94521.91;;;2.88;71.45
68141;BME280;54941;52.220;104.306;2023-11-19T11:58:26;94519.31;;;2.90;71.86
68141;BME280;54941;52.220;104.306;2023-11-19T12:00:52;94519.13;;;2.98;71.49
68141;BME280;54941;52.220;104.306;2023-11-19T12:03:20;94534.03;;;2.92;71.60
68141;BME280;54941;52.220;104.306;2023-11-19T12:05:49;94528.00;;;2.89;71.63
68141;BME280;54941;52.220;104.306;2023-11-19T12:08:19;94531.75;;;2.76;72.45
68141;BME280;54941;52.220;104.306;2023-11-19T12:10:46;94528.06;;;2.86;72.06
68141;BME280;54941;52.220;104.306;2023-11-19T12:13:13;94539.09;;;2.99;71.60
68141;BME280;54941;52.220;104.306;2023-11-19T12:16:07;94548.63;;;3.01;71.53
68141;BME280;54941;52.220;104.306;2023-11-19T12:18:33;94553.72;;;3.06;71.64
68141;BME280;54941;52.220;104.306;2023-11-19T12:21:01;94551.38;;;2.93;71.89
68141;BME280;54941;52.220;104.306;2023-11-19T12:23:29;94566.03;;;2.99;71.95
68141;BME280;54941;52.220;104.306;2023-11-19T12:25:56;94581.63;;;3.01;71.77
68141;BME280;54941;52.220;104.306;2023-11-19T12:28:22;94574.81;;;2.95;72.11
68141;BME280;54941;52.220;104.306;2023-11-19T12:30:48;94593.22;;;2.87;72.53
68141;BME280;54941;52.220;104.306;2023-11-19T12:33:15;94586.09;;;2.96;72.29
68141;BME280;54941;52.220;104.306;2023-11-19T12:35:42;94592.28;;;2.91;72.47
68141;BME280;54941;52.220;104.306;2023-11-19T12:38:18;94592.69;;;2.72;73.25
68141;BME280;54941;52.220;104.306;2023-11-19T12:40:45;94598.56;;;2.81;73.01
68141;BME280;54941;52.220;104.306;2023-11-19T12:43:21;94605.97;;;3.03;72.40
68141;BME280;54941;52.220;104.306;2023-11-19T12:45:48;94625.63;;;3.19;71.41
68141;BME280;54941;52.220;104.306;2023-11-19T12:48:14;94637.94;;;3.11;71.79
68141;BME280;54941;52.220;104.306;2023-11-19T12:50:53;94636.56;;;2.95;72.40
68141;BME280;54941;52.220;104.306;2023-11-19T12:53:22;94631.53;;;2.85;72.83
68141;BME280;54941;52.220;104.306;2023-11-19T12:55:48;94642.75;;;2.90;72.95